Flight Track Log - Related Links

Times and Time Zones

All times are in EDT time to prevent confusion due to time zone crossing. See the GGA1 flight status page for this flight to view local times or setup timezone preferences in your user account.

Time Position Orientation Groundspeed Altitude Reporting Facility
EDT Latitude Longitude Course Direction KTS MPH feet Rate Location/Type
Wed 12:48:01 PM 33.9500 -83.3500 149° Southeast 123 142 1,600  Level Atlanta TRACON
Wed 12:49:41 PM 33.8944 -83.3106 149° Southeast 149 171 4,500 1,725 Climbing Atlanta Center
Wed 12:50:41 PM 33.8586 -83.2858 150° Southeast 144 166 6,200 1,700 Climbing Atlanta Center
Wed 12:51:41 PM 33.8211 -83.2586 149° Southeast 155 178 7,900 1,700 Climbing Atlanta Center
Wed 12:52:41 PM 33.7811 -83.2289 148° Southeast 160 184 9,600 1,650 Climbing Atlanta Center
Wed 12:53:41 PM 33.7392 -83.2019 152° Southeast 171 197 11,200 1,550 Climbing Atlanta Center
Wed 12:54:41 PM 33.6972 -83.1675 146° Southeast 178 205 12,700 1,500 Climbing Atlanta Center
Wed 12:55:41 PM 33.6489 -83.1331 149° Southeast 193 222 14,200 1,550 Climbing Atlanta Center
Wed 12:56:41 PM 33.6006 -83.0986 149° Southeast 203 234 15,800 1,450 Climbing Atlanta Center
Wed 12:57:41 PM 33.5483 -83.0592 148° Southeast 208 239 17,100 1,150 Climbing Atlanta Center
Wed 12:58:41 PM 33.4853 -83.0200 153° Southeast 213 245 18,100 950 Climbing Atlanta Center
Wed 12:59:41 PM 33.4369 -82.9783 144° Southeast 219 252 19,000 450 Climbing Atlanta Center
Wed 01:00:41 PM 33.3675 -82.9344 152° Southeast 253 291 19,000  Level Atlanta Center
Wed 01:01:41 PM 33.2961 -82.8831 149° Southeast 281 323 19,000  Level Atlanta Center
Wed 01:02:41 PM 33.2289 -82.8319 148° Southeast 290 334 19,000  Level Atlanta Center
Wed 01:03:41 PM 33.1575 -82.7833 150° Southeast 295 339 19,000  Level Atlanta Center
Wed 01:04:41 PM 33.0881 -82.7322 148° Southeast 295 339 19,000  Level Atlanta Center
Wed 01:05:41 PM 33.0167 -82.6836 150° Southeast 295 339 19,000  Level Atlanta Center
Wed 01:06:41 PM 32.9492 -82.6353 149° Southeast 295 339 19,000  Level Atlanta Center
Wed 01:07:41 PM 32.8797 -82.5844 148° Southeast 295 339 19,000  Level Atlanta Center
Wed 01:08:41 PM 32.8083 -82.5386 152° Southeast 295 339 19,000  Level Atlanta Center
Wed 01:09:41 PM 32.7325 -82.5006 157° South 288 331 19,000  Level Atlanta Center
Wed 01:11:55 PM 32.5625 -82.4586 168° South 283 326 19,000  Level Jacksonville Center
Wed 01:12:55 PM 32.4831 -82.4344 166° South 288 331 19,000  Level Jacksonville Center
Wed 01:13:55 PM 32.3972 -82.4078 165° South 288 331 19,000  Level Jacksonville Center
Wed 01:14:55 PM 32.3181 -82.3861 167° South 295 339 19,000  Level Jacksonville Center
Wed 01:15:55 PM 32.2386 -82.3619 166° South 295 339 19,000 -600 Level Jacksonville Center
Wed 01:16:55 PM 32.1569 -82.3381 166° South 295 339 17,800 -1,050 Descending Jacksonville Center
Wed 01:17:55 PM 32.0817 -82.3164 166° South 303 349 16,900 -1,100 Descending Jacksonville Center
Wed 01:18:55 PM 31.9878 -82.2900 167° South 312 359 15,600 -1,250 Descending Jacksonville Center
Wed 01:19:55 PM 31.9019 -82.2661 167° South 313 360 14,400 -1,300 Descending Jacksonville Center
Wed 01:20:55 PM 31.8161 -82.2397 165° South 318 366 13,000 -1,300 Descending Jacksonville Center
Wed 01:21:55 PM 31.7325 -82.2183 168° South 312 359 11,800 -1,000 Descending Jacksonville Center
Wed 01:22:55 PM 31.6614 -82.1944 164° South 302 348 11,000 -750 Descending Jacksonville Center
Wed 01:23:55 PM 31.5819 -82.1756 169° South 294 338 10,300 -850 Descending Jacksonville Center
Wed 01:24:55 PM 31.5089 -82.1494 163° South 288 331 9,300 -1,050 Descending Jacksonville Center
Wed 01:25:55 PM 31.4250 -82.1256 166° South 281 323 8,200 -1,000 Descending Jacksonville Center
Wed 01:26:55 PM 31.3561 -82.1067 167° South 281 323 7,300 -900 Descending Jacksonville Center
Wed 01:27:55 PM 31.3036 -82.0489 137° Southeast 261 300 6,400 -1,000 Descending Jacksonville Center
Wed 01:28:55 PM 31.2842 -81.9664 105° East 240 276 5,300 -750 Descending Jacksonville Center
Wed 01:29:55 PM 31.2544 -81.8939 116° Southeast 250 288 4,900 -198 Descending Jacksonville Center
Wed 01:30:56 PM 31.2203 -81.8211 119° Southeast 235 270 4,900 -600 Level Jacksonville Center
Wed 01:31:55 PM 31.1906 -81.7511 116° Southeast 236 272 3,700 -1,008 Descending Jacksonville Center
Wed 01:32:55 PM 31.1669 -81.6883 114° Southeast 241 277 2,900 -400 Descending Jacksonville Center
Wed 01:33:55 PM 31.1664 -81.6253 91° East 204 235 2,900 -100 Level Jacksonville Center
Wed 01:34:55 PM 31.1617 -81.5622 95° East 183 211 2,700 -200 Descending Jacksonville Center

Login

Don't have an account? Register now (free) for customized features, flight alerts, and more!